createdAt,value
2022-09-16T00:00:53.161Z,14.84
2022-09-16T00:03:20.002Z,14.83
2022-09-16T00:05:49.671Z,14.83
2022-09-16T00:08:19.367Z,14.83
2022-09-16T00:10:46.397Z,14.80
2022-09-16T00:13:13.735Z,14.80
2022-09-16T00:15:47.453Z,14.79
2022-09-16T00:18:14.953Z,14.78
2022-09-16T00:20:46.321Z,14.78
2022-09-16T00:23:17.170Z,14.77
2022-09-16T00:25:43.732Z,14.76
2022-09-16T00:28:11.710Z,14.74
2022-09-16T00:30:38.444Z,14.70
2022-09-16T00:33:06.737Z,14.68
2022-09-16T00:35:33.290Z,14.67
2022-09-16T00:37:59.959Z,14.68
2022-09-16T00:40:26.786Z,14.65
2022-09-16T00:42:53.327Z,14.63
2022-09-16T00:45:25.519Z,14.60
2022-09-16T00:47:57.821Z,14.56
2022-09-16T00:50:53.155Z,14.47
2022-09-16T00:53:28.299Z,14.44
2022-09-16T00:56:01.675Z,14.40
2022-09-16T00:58:38.707Z,14.39
2022-09-16T01:01:06.035Z,14.37
2022-09-16T01:03:36.845Z,14.35
2022-09-16T01:06:10.790Z,14.31
2022-09-16T01:08:37.535Z,14.31
2022-09-16T01:11:04.059Z,14.26
2022-09-16T01:13:30.708Z,14.23
2022-09-16T01:16:12.545Z,14.24
2022-09-16T01:19:04.466Z,14.21
2022-09-16T01:21:38.369Z,14.18
2022-09-16T01:24:26.210Z,14.17
2022-09-16T01:27:12.686Z,14.17
2022-09-16T01:30:06.524Z,14.16
2022-09-16T01:32:51.461Z,14.17
2022-09-16T01:35:44.664Z,14.21
2022-09-16T01:38:41.746Z,14.22
2022-09-16T01:41:25.497Z,14.23
2022-09-16T01:44:03.743Z,14.22
2022-09-16T01:46:37.516Z,14.22
2022-09-16T01:49:10.123Z,14.22
2022-09-16T01:51:46.486Z,14.23
2022-09-16T01:54:16.396Z,14.23
2022-09-16T01:56:54.053Z,14.21
2022-09-16T01:59:36.970Z,14.21
2022-09-16T02:02:18.098Z,14.19
2022-09-16T02:04:50.892Z,14.16
2022-09-16T02:07:24.713Z,14.18
2022-09-16T02:10:06.821Z,14.18
2022-09-16T02:12:39.363Z,14.18
2022-09-16T02:15:11.369Z,14.18
2022-09-16T02:17:47.149Z,14.16
2022-09-16T02:20:15.822Z,14.17
2022-09-16T02:22:47.385Z,14.20
2022-09-16T02:25:16.338Z,14.20
2022-09-16T02:27:45.771Z,14.17
2022-09-16T02:30:18.107Z,14.17
2022-09-16T02:32:55.133Z,14.17
2022-09-16T02:35:23.952Z,14.13
2022-09-16T02:38:01.225Z,14.12
2022-09-16T02:40:37.814Z,14.08
2022-09-16T02:43:04.703Z,14.05
2022-09-16T02:45:46.864Z,14.06
2022-09-16T02:48:25.165Z,14.07
2022-09-16T02:51:03.667Z,14.06
2022-09-16T02:54:10.521Z,14.03
2022-09-16T02:56:40.624Z,13.99
2022-09-16T02:59:11.587Z,13.95
2022-09-16T03:01:45.296Z,13.96
2022-09-16T03:04:15.741Z,13.96
2022-09-16T03:06:42.267Z,13.95
2022-09-16T03:09:15.369Z,13.93
2022-09-16T03:11:47.779Z,13.91
2022-09-16T03:14:39.340Z,13.89
2022-09-16T03:17:15.895Z,13.85
2022-09-16T03:20:07.826Z,13.83
2022-09-16T03:22:49.525Z,13.81
2022-09-16T03:25:32.329Z,13.82
2022-09-16T03:28:16.042Z,13.80
2022-09-16T03:30:55.196Z,13.80
2022-09-16T03:33:31.541Z,13.80
2022-09-16T03:36:05.595Z,13.79
2022-09-16T03:38:35.538Z,13.77
2022-09-16T03:41:09.237Z,13.76
2022-09-16T03:43:36.042Z,13.74
2022-09-16T03:46:03.332Z,13.74
2022-09-16T03:48:31.606Z,13.69
2022-09-16T03:50:58.191Z,13.65
2022-09-16T03:53:24.676Z,13.55
2022-09-16T03:55:53.395Z,13.50
2022-09-16T03:58:19.868Z,13.46
2022-09-16T04:00:51.037Z,13.40
2022-09-16T04:03:20.199Z,13.39
2022-09-16T04:05:47.440Z,13.35
2022-09-16T04:08:14.029Z,13.34
2022-09-16T04:10:42.221Z,13.31
2022-09-16T04:13:09.859Z,13.30
2022-09-16T04:15:38.948Z,13.25
2022-09-16T04:18:05.759Z,13.23
2022-09-16T04:20:33.841Z,13.21
2022-09-16T04:23:00.352Z,13.19
2022-09-16T04:25:32.081Z,13.20
2022-09-16T04:27:58.600Z,13.21
2022-09-16T04:30:25.962Z,13.18
2022-09-16T04:32:56.843Z,13.16
2022-09-16T04:35:25.132Z,13.16
2022-09-16T04:37:52.959Z,13.16
2022-09-16T04:40:21.315Z,13.11
2022-09-16T04:42:51.587Z,13.09
2022-09-16T04:45:20.075Z,13.05
2022-09-16T04:47:46.769Z,13.02
2022-09-16T04:50:13.376Z,12.99
2022-09-16T04:52:39.927Z,12.99
2022-09-16T04:55:06.701Z,12.98
2022-09-16T04:57:33.301Z,12.97
2022-09-16T04:59:59.805Z,12.96
2022-09-16T05:02:29.728Z,12.94
2022-09-16T05:04:59.120Z,12.93
2022-09-16T05:07:25.618Z,12.89
2022-09-16T05:09:52.395Z,12.89
2022-09-16T05:12:18.901Z,12.87
2022-09-16T05:14:45.416Z,12.87
2022-09-16T05:17:23.117Z,12.87
2022-09-16T05:19:59.854Z,12.92
2022-09-16T05:22:36.833Z,12.88
2022-09-16T05:25:06.569Z,12.88
2022-09-16T05:27:34.074Z,12.86
2022-09-16T05:30:02.715Z,12.88
2022-09-16T05:32:29.208Z,12.89
2022-09-16T05:34:56.295Z,12.88
2022-09-16T05:37:33.980Z,12.84
2022-09-16T05:40:02.806Z,12.83
2022-09-16T05:42:29.314Z,12.83
2022-09-16T05:44:57.591Z,12.87
2022-09-16T05:47:24.249Z,12.92
2022-09-16T05:49:54.952Z,12.94
2022-09-16T05:52:21.828Z,12.95
2022-09-16T05:54:48.314Z,12.96
2022-09-16T05:57:14.839Z,12.97
2022-09-16T05:59:43.485Z,12.98
2022-09-16T06:02:12.862Z,12.99
2022-09-16T06:04:39.343Z,12.99
2022-09-16T06:07:09.039Z,13.03
2022-09-16T06:09:35.535Z,13.05
2022-09-16T06:12:02.521Z,13.03
2022-09-16T06:14:38.139Z,13.10
2022-09-16T06:17:06.922Z,13.22
2022-09-16T06:19:33.369Z,13.39
2022-09-16T06:22:02.194Z,13.56
2022-09-16T06:24:28.694Z,13.71
2022-09-16T06:26:56.610Z,13.78
2022-09-16T06:29:27.834Z,13.81
2022-09-16T06:31:54.382Z,13.76
2022-09-16T06:34:20.891Z,13.77
2022-09-16T06:36:52.579Z,13.77
2022-09-16T06:39:24.060Z,13.83
2022-09-16T06:41:50.964Z,13.91
2022-09-16T06:44:17.659Z,13.98
2022-09-16T06:46:44.331Z,14.02
2022-09-16T06:49:13.220Z,14.14
2022-09-16T06:51:40.083Z,14.33
2022-09-16T06:54:08.009Z,14.38
2022-09-16T06:56:37.672Z,14.42
2022-09-16T06:59:07.184Z,14.51
2022-09-16T07:01:40.109Z,14.76
2022-09-16T07:04:12.780Z,14.92
2022-09-16T07:09:27.342Z,15.50
2022-09-16T07:11:54.455Z,15.45
2022-09-16T07:14:21.370Z,15.43
2022-09-16T07:16:50.429Z,15.35
2022-09-16T07:19:17.160Z,15.33
2022-09-16T07:21:43.779Z,15.38
2022-09-16T07:24:13.675Z,15.37
2022-09-16T07:26:41.817Z,15.22
2022-09-16T07:29:12.101Z,15.20
2022-09-16T07:31:40.677Z,15.26
2022-09-16T07:34:10.553Z,15.34
2022-09-16T07:36:50.099Z,15.47
2022-09-16T07:39:19.794Z,15.54
2022-09-16T07:41:48.612Z,15.54
2022-09-16T07:44:19.215Z,15.49
2022-09-16T07:46:46.013Z,15.46
2022-09-16T07:49:14.443Z,15.47
2022-09-16T07:51:45.850Z,15.63
2022-09-16T07:54:16.646Z,15.60
2022-09-16T07:56:45.609Z,15.45
2022-09-16T07:59:18.310Z,15.40
2022-09-16T08:01:47.983Z,15.38
2022-09-16T08:04:14.822Z,15.41
2022-09-16T08:06:41.663Z,15.40
2022-09-16T08:09:37.336Z,15.52
2022-09-16T08:11:55.102Z,15.62
2022-09-16T08:14:23.935Z,15.57
2022-09-16T08:16:53.327Z,15.62
2022-09-16T08:19:23.312Z,15.75
2022-09-16T08:21:50.215Z,16.00
2022-09-16T08:24:16.737Z,16.20
2022-09-16T08:26:51.957Z,16.29
2022-09-16T08:29:18.613Z,16.27
2022-09-16T08:31:45.402Z,16.32
2022-09-16T08:34:13.614Z,16.10
2022-09-16T08:36:40.272Z,16.04
2022-09-16T08:39:07.127Z,16.01
2022-09-16T08:41:48.455Z,16.04
2022-09-16T08:44:20.919Z,16.13
2022-09-16T08:46:54.267Z,16.27
2022-09-16T08:49:41.227Z,16.36
2022-09-16T08:52:12.515Z,16.42
2022-09-16T08:54:46.075Z,16.60
2022-09-16T08:57:21.073Z,16.90
2022-09-16T09:00:13.650Z,17.00
2022-09-16T09:02:55.316Z,16.98
2022-09-16T09:05:46.677Z,17.09
2022-09-16T09:08:40.850Z,17.07
2022-09-16T09:11:35.684Z,17.10
2022-09-16T09:14:42.397Z,17.12
2022-09-16T09:17:48.557Z,17.31
2022-09-16T09:20:38.211Z,17.36
2022-09-16T09:23:19.116Z,18.65
2022-09-16T09:26:06.926Z,19.76
2022-09-16T09:28:48.493Z,19.91
2022-09-16T09:31:31.240Z,19.47
2022-09-16T09:34:09.446Z,18.61
2022-09-16T09:36:53.741Z,19.44
2022-09-16T09:39:29.557Z,20.13
2022-09-16T09:42:06.774Z,19.91
2022-09-16T09:45:15.064Z,19.84
2022-09-16T09:47:55.697Z,18.86
2022-09-16T09:50:36.388Z,19.06
2022-09-16T09:53:17.558Z,18.88
2022-09-16T09:55:44.164Z,19.05
2022-09-16T09:58:32.179Z,18.39
2022-09-16T10:00:58.762Z,18.08
2022-09-16T10:03:27.427Z,17.93
2022-09-16T10:05:56.432Z,17.78
2022-09-16T10:08:52.123Z,17.39
2022-09-16T10:11:28.254Z,17.29
2022-09-16T10:13:58.084Z,17.69
2022-09-16T10:16:39.527Z,17.66
2022-09-16T10:19:17.084Z,17.47
2022-09-16T10:21:52.871Z,17.40
2022-09-16T10:24:30.545Z,17.56
2022-09-16T10:27:02.956Z,17.87
2022-09-16T10:29:29.839Z,18.52
2022-09-16T10:31:58.651Z,19.04
2022-09-16T10:34:35.820Z,18.92
2022-09-16T10:37:17.415Z,18.34
2022-09-16T10:39:51.780Z,18.06
2022-09-16T10:42:26.567Z,18.34
2022-09-16T10:45:01.672Z,18.65
2022-09-16T10:47:32.564Z,19.86
2022-09-16T10:50:03.115Z,20.69
2022-09-16T10:52:31.589Z,21.50
2022-09-16T10:55:20.055Z,21.11
2022-09-16T10:57:47.081Z,20.31
2022-09-16T11:00:15.516Z,20.04
2022-09-16T11:03:02.503Z,20.66
2022-09-16T11:06:17.475Z,20.93
2022-09-16T11:09:05.277Z,20.36
2022-09-16T11:11:42.756Z,20.33
2022-09-16T11:14:27.760Z,20.27
2022-09-16T11:17:11.422Z,20.24
2022-09-16T11:19:55.852Z,19.63
2022-09-16T11:22:35.057Z,19.18
2022-09-16T11:25:35.537Z,18.97
2022-09-16T11:28:39.713Z,18.86
2022-09-16T11:31:10.943Z,18.99
2022-09-16T11:34:05.776Z,18.80
2022-09-16T11:36:40.445Z,18.74
2022-09-16T11:39:32.023Z,18.96
2022-09-16T11:42:19.647Z,18.96
2022-09-16T11:44:56.877Z,19.02
2022-09-16T11:47:29.194Z,19.55
2022-09-16T11:50:26.273Z,19.17
2022-09-16T11:53:35.371Z,18.58
2022-09-16T11:56:12.365Z,18.52
2022-09-16T11:58:51.715Z,18.32
2022-09-16T12:01:50.059Z,18.16
2022-09-16T12:04:31.835Z,17.99
2022-09-16T12:07:09.467Z,17.81
2022-09-16T12:09:58.841Z,17.81
2022-09-16T12:12:41.123Z,17.66
2022-09-16T12:15:22.923Z,17.72
2022-09-16T12:17:56.496Z,17.66
2022-09-16T12:20:35.837Z,17.86
2022-09-16T12:23:20.132Z,17.81
2022-09-16T12:26:10.529Z,17.72
2022-09-16T12:31:52.595Z,17.90
2022-09-16T12:34:51.342Z,18.25
2022-09-16T12:37:38.346Z,18.27
2022-09-16T12:40:14.821Z,18.49
2022-09-16T12:42:59.774Z,18.57
2022-09-16T12:45:53.880Z,18.46
2022-09-16T12:49:00.421Z,18.36
2022-09-16T12:51:49.620Z,18.08
2022-09-16T12:54:28.559Z,18.02
2022-09-16T12:57:15.894Z,17.89
2022-09-16T13:00:12.583Z,17.78
2022-09-16T13:02:47.663Z,17.51
2022-09-16T13:05:28.188Z,17.51
2022-09-16T13:08:03.796Z,17.53
2022-09-16T13:10:54.426Z,17.64
2022-09-16T13:13:36.537Z,17.77
2022-09-16T13:16:08.448Z,18.25
2022-09-16T13:18:38.023Z,18.12
2022-09-16T13:21:39.347Z,17.78
2022-09-16T13:24:17.297Z,17.52
2022-09-16T13:26:45.527Z,17.46
2022-09-16T13:29:33.483Z,17.89
2022-09-16T13:32:00.330Z,18.50
2022-09-16T13:34:27.061Z,18.66
2022-09-16T13:36:53.656Z,18.53
2022-09-16T13:39:32.715Z,18.14
2022-09-16T13:42:17.684Z,17.99
2022-09-16T13:44:44.322Z,17.83
2022-09-16T13:47:10.911Z,17.65
2022-09-16T13:49:51.817Z,17.48
2022-09-16T13:52:27.563Z,17.44
2022-09-16T13:55:11.365Z,16.99
2022-09-16T13:57:59.915Z,16.91
2022-09-16T14:00:36.337Z,16.66
2022-09-16T14:03:21.208Z,16.62
2022-09-16T14:06:16.111Z,16.43
2022-09-16T14:09:24.076Z,16.10
2022-09-16T14:11:57.736Z,16.12
2022-09-16T14:14:46.318Z,16.14
2022-09-16T14:17:22.276Z,16.02
2022-09-16T14:19:52.395Z,16.03
2022-09-16T14:22:27.611Z,15.89
2022-09-16T14:25:06.807Z,15.87
2022-09-16T14:30:39.355Z,16.16
2022-09-16T14:33:09.940Z,16.76
2022-09-16T14:35:36.422Z,17.18
2022-09-16T14:38:14.168Z,17.68
2022-09-16T14:40:49.800Z,17.96
2022-09-16T14:43:24.792Z,18.11
2022-09-16T14:45:54.753Z,18.25
2022-09-16T14:48:30.081Z,18.26
2022-09-16T14:50:58.835Z,18.02
2022-09-16T14:53:35.869Z,17.73
2022-09-16T14:56:09.714Z,17.47
2022-09-16T14:58:36.846Z,17.09
2022-09-16T15:01:17.148Z,16.86
2022-09-16T15:03:55.254Z,16.69
2022-09-16T15:06:29.103Z,16.47
2022-09-16T15:08:59.215Z,16.12
2022-09-16T15:11:48.460Z,15.80
2022-09-16T15:14:15.804Z,15.38
2022-09-16T15:16:49.848Z,15.20
2022-09-16T15:19:23.367Z,14.85
2022-09-16T15:21:50.743Z,14.61
2022-09-16T15:24:24.823Z,14.27
2022-09-16T15:26:57.609Z,14.15
2022-09-16T15:29:24.024Z,13.98
2022-09-16T15:31:51.302Z,13.87
2022-09-16T15:34:27.947Z,13.75
2022-09-16T15:36:56.903Z,13.65
2022-09-16T15:39:34.179Z,13.56
2022-09-16T15:42:14.767Z,13.47
2022-09-16T15:44:47.762Z,13.35
2022-09-16T15:47:25.297Z,13.32
2022-09-16T15:50:09.873Z,13.32
2022-09-16T15:52:48.205Z,13.39
2022-09-16T15:55:36.497Z,13.42
2022-09-16T15:58:07.806Z,13.39
2022-09-16T16:01:10.486Z,13.29
2022-09-16T16:03:54.232Z,13.22
2022-09-16T16:06:41.442Z,13.20
2022-09-16T16:09:30.321Z,13.19
2022-09-16T16:12:08.878Z,13.08
2022-09-16T16:14:38.347Z,13.09
2022-09-16T16:17:13.294Z,13.02
2022-09-16T16:19:47.635Z,13.02
2022-09-16T16:22:15.531Z,13.02
2022-09-16T16:24:42.459Z,13.02
2022-09-16T16:27:15.525Z,12.98
2022-09-16T16:29:42.060Z,12.95
2022-09-16T16:32:11.174Z,12.82
2022-09-16T16:34:42.440Z,12.77
2022-09-16T16:37:19.201Z,12.69
2022-09-16T16:39:59.367Z,12.65
2022-09-16T16:42:28.674Z,12.57
2022-09-16T16:44:56.539Z,12.52
2022-09-16T16:47:24.132Z,12.53
2022-09-16T16:49:51.943Z,12.50
2022-09-16T16:52:18.889Z,12.48
2022-09-16T16:54:47.629Z,12.47
2022-09-16T16:57:14.217Z,12.44
2022-09-16T16:59:40.734Z,12.42
2022-09-16T17:02:11.530Z,12.39
2022-09-16T17:04:38.391Z,12.38
2022-09-16T17:09:52.339Z,12.29
2022-09-16T17:12:20.953Z,12.23
2022-09-16T17:14:47.738Z,12.19
2022-09-16T17:17:14.358Z,12.17
2022-09-16T17:19:40.854Z,12.13
2022-09-16T17:22:07.499Z,12.10
2022-09-16T17:24:38.959Z,12.06
2022-09-16T17:27:05.540Z,11.99
2022-09-16T17:29:32.501Z,11.96
2022-09-16T17:32:04.173Z,11.94
2022-09-16T17:34:35.019Z,11.93
2022-09-16T17:37:04.258Z,11.89
2022-09-16T17:39:30.729Z,11.90
2022-09-16T17:42:01.000Z,11.87
2022-09-16T17:44:27.553Z,11.85
2022-09-16T17:46:54.044Z,11.80
2022-09-16T17:49:22.938Z,11.74
2022-09-16T17:51:50.898Z,11.73
2022-09-16T17:54:18.006Z,11.72
2022-09-16T17:56:44.919Z,11.71
2022-09-16T17:59:15.605Z,11.72
2022-09-16T18:01:42.247Z,11.73
2022-09-16T18:04:08.766Z,11.74
2022-09-16T18:06:41.489Z,11.75
2022-09-16T18:09:08.285Z,11.77
2022-09-16T18:11:35.888Z,11.80
2022-09-16T18:14:04.415Z,11.80
2022-09-16T18:16:32.134Z,11.80
2022-09-16T18:19:00.733Z,11.79
2022-09-16T18:21:29.324Z,11.80
2022-09-16T18:24:01.095Z,11.79
2022-09-16T18:26:28.572Z,11.77
2022-09-16T18:29:12.616Z,11.74
2022-09-16T18:31:43.768Z,11.68
2022-09-16T18:34:10.818Z,11.66
2022-09-16T18:36:41.963Z,11.62
2022-09-16T18:39:16.463Z,11.59
2022-09-16T18:41:45.142Z,11.56
2022-09-16T18:44:18.071Z,11.55
2022-09-16T18:46:44.584Z,11.55
2022-09-16T18:49:13.180Z,11.57
2022-09-16T18:51:44.321Z,11.61
2022-09-16T18:54:25.952Z,11.64
2022-09-16T18:56:56.010Z,11.69
2022-09-16T18:59:24.959Z,11.69
2022-09-16T19:01:53.903Z,11.70
2022-09-16T19:04:23.222Z,11.66
2022-09-16T19:06:52.924Z,11.63
2022-09-16T19:09:21.661Z,11.59
2022-09-16T19:11:57.074Z,11.59
2022-09-16T19:14:27.484Z,11.55
2022-09-16T19:16:54.551Z,11.48
2022-09-16T19:19:23.403Z,11.46
2022-09-16T19:21:50.128Z,11.43
2022-09-16T19:24:21.241Z,11.39
2022-09-16T19:26:51.664Z,11.35
2022-09-16T19:29:19.223Z,11.30
2022-09-16T19:31:48.044Z,11.25
2022-09-16T19:34:18.366Z,11.23
2022-09-16T19:36:45.084Z,11.21
2022-09-16T19:39:12.702Z,11.17
2022-09-16T19:41:42.411Z,11.17
2022-09-16T19:44:14.743Z,11.18
2022-09-16T19:46:42.977Z,11.19
2022-09-16T19:49:18.704Z,11.20
2022-09-16T19:51:45.484Z,11.24
2022-09-16T19:54:12.721Z,11.24
2022-09-16T19:56:41.114Z,11.25
2022-09-16T19:59:07.887Z,11.26
2022-09-16T20:01:35.950Z,11.27
2022-09-16T20:04:04.313Z,11.27
2022-09-16T20:06:36.142Z,11.28
2022-09-16T20:09:07.712Z,11.26
2022-09-16T20:11:37.435Z,11.25
2022-09-16T20:14:15.340Z,11.23
2022-09-16T20:16:42.554Z,11.25
2022-09-16T20:19:12.722Z,11.26
2022-09-16T20:21:41.618Z,11.24
2022-09-16T20:24:14.419Z,11.22
2022-09-16T20:26:40.991Z,11.14
2022-09-16T20:29:16.008Z,11.07
2022-09-16T20:31:42.664Z,10.93
2022-09-16T20:34:10.441Z,10.87
2022-09-16T20:36:38.838Z,10.78
2022-09-16T20:39:07.017Z,10.72
2022-09-16T20:41:35.321Z,10.67
2022-09-16T20:44:04.207Z,10.61
2022-09-16T20:46:33.241Z,10.54
2022-09-16T20:49:01.824Z,10.45
2022-09-16T20:51:31.674Z,10.41
2022-09-16T20:54:05.031Z,10.38
2022-09-16T20:56:38.198Z,10.32
2022-09-16T20:59:07.559Z,10.27
2022-09-16T21:01:35.183Z,10.24
2022-09-16T21:04:07.570Z,10.22
2022-09-16T21:06:36.019Z,10.20
2022-09-16T21:09:05.474Z,10.18
2022-09-16T21:11:33.328Z,10.18
2022-09-16T21:14:01.770Z,10.14
2022-09-16T21:16:31.878Z,10.11
2022-09-16T21:19:00.601Z,10.11
2022-09-16T21:21:28.375Z,10.11
2022-09-16T21:23:58.139Z,10.11
2022-09-16T21:26:28.487Z,10.11
2022-09-16T21:28:58.197Z,10.12
2022-09-16T21:31:26.715Z,10.13
2022-09-16T21:33:53.364Z,10.11
2022-09-16T21:36:21.495Z,10.08
2022-09-16T21:38:48.370Z,10.05
2022-09-16T21:41:22.637Z,10.01
2022-09-16T21:43:52.251Z,9.99
2022-09-16T21:46:26.069Z,9.96
2022-09-16T21:48:55.627Z,9.90
2022-09-16T21:51:35.213Z,9.86
2022-09-16T21:54:03.417Z,9.81
2022-09-16T21:56:30.182Z,9.76
2022-09-16T21:58:58.545Z,9.72
2022-09-16T22:01:28.321Z,9.68
2022-09-16T22:04:08.266Z,9.62
2022-09-16T22:06:35.373Z,9.54
2022-09-16T22:09:03.737Z,9.50
2022-09-16T22:11:34.475Z,9.46
2022-09-16T22:14:01.003Z,9.42
2022-09-16T22:16:31.678Z,9.40
2022-09-16T22:19:05.957Z,9.38
2022-09-16T22:21:35.143Z,9.41
2022-09-16T22:24:02.249Z,9.41
2022-09-16T22:26:30.490Z,9.40
2022-09-16T22:28:57.736Z,9.41
2022-09-16T22:31:31.595Z,9.44
2022-09-16T22:34:00.520Z,9.45
2022-09-16T22:36:29.242Z,9.48
2022-09-16T22:39:00.303Z,9.51
2022-09-16T22:41:27.832Z,9.54
2022-09-16T22:43:54.865Z,9.57
2022-09-16T22:46:27.520Z,9.60
2022-09-16T22:48:58.871Z,9.60
2022-09-16T22:51:26.452Z,9.60
2022-09-16T22:53:55.683Z,9.60
2022-09-16T22:56:31.773Z,9.60
2022-09-16T22:59:06.277Z,9.59
2022-09-16T23:01:38.230Z,9.61
2022-09-16T23:04:06.188Z,9.62
2022-09-16T23:06:34.050Z,9.62
2022-09-16T23:09:00.786Z,9.61
2022-09-16T23:11:30.010Z,9.61
2022-09-16T23:13:59.464Z,9.61
2022-09-16T23:16:28.716Z,9.59
2022-09-16T23:18:57.697Z,9.56
2022-09-16T23:21:27.448Z,9.55
2022-09-16T23:23:56.356Z,9.54
2022-09-16T23:26:26.169Z,9.51
2022-09-16T23:28:59.364Z,9.50
2022-09-16T23:31:28.729Z,9.49
2022-09-16T23:33:55.813Z,9.48
2022-09-16T23:36:25.775Z,9.51
2022-09-16T23:38:53.086Z,9.53
2022-09-16T23:41:22.868Z,9.55
2022-09-16T23:43:52.221Z,9.58
2022-09-16T23:46:20.980Z,9.61
2022-09-16T23:48:48.005Z,9.64
2022-09-16T23:51:16.502Z,9.65
2022-09-16T23:53:43.004Z,9.67
2022-09-16T23:56:12.363Z,9.67
2022-09-16T23:58:40.088Z,9.70
